createdAt,value
2023-01-09T00:01:49.547Z,100.00
2023-01-09T00:04:20.110Z,100.00
2023-01-09T00:06:54.206Z,100.00
2023-01-09T00:09:24.010Z,100.00
2023-01-09T00:11:52.504Z,100.00
2023-01-09T00:14:20.080Z,100.00
2023-01-09T00:16:48.998Z,100.00
2023-01-09T00:19:16.764Z,100.00
2023-01-09T00:21:44.439Z,100.00
2023-01-09T00:24:12.115Z,100.00
2023-01-09T00:26:39.613Z,100.00
2023-01-09T00:29:10.971Z,100.00
2023-01-09T00:31:43.731Z,100.00
2023-01-09T00:34:12.044Z,100.00
2023-01-09T00:36:40.093Z,100.00
2023-01-09T00:39:07.637Z,100.00
2023-01-09T00:41:40.739Z,100.00
2023-01-09T00:44:14.824Z,100.00
2023-01-09T00:46:47.805Z,100.00
2023-01-09T00:49:16.731Z,100.00
2023-01-09T00:51:44.482Z,100.00
2023-01-09T00:54:15.297Z,100.00
2023-01-09T00:56:43.697Z,100.00
2023-01-09T00:59:11.359Z,100.00
2023-01-09T01:01:40.412Z,100.00
2023-01-09T01:04:29.753Z,100.00
2023-01-09T08:06:51.435Z,100.00
2023-01-09T08:09:19.203Z,100.00
2023-01-09T08:11:57.584Z,100.00
2023-01-09T08:15:49.460Z,99.79
2023-01-09T08:18:20.032Z,99.23
2023-01-09T08:20:50.903Z,98.67
2023-01-09T08:28:51.200Z,95.90
2023-01-09T08:31:21.946Z,95.78
2023-01-09T08:33:51.901Z,94.16
2023-01-09T08:36:20.943Z,93.11
2023-01-09T08:38:48.559Z,92.49
2023-01-09T08:41:34.737Z,91.50
2023-01-09T08:44:20.850Z,90.40
2023-01-09T08:47:06.932Z,89.67
2023-01-09T08:49:36.454Z,88.99
2023-01-09T08:52:06.282Z,87.54
2023-01-09T08:54:36.968Z,87.36
2023-01-09T08:57:05.083Z,87.23
2023-01-09T08:59:32.749Z,84.69
2023-01-09T09:02:00.875Z,82.66
2023-01-09T09:04:28.558Z,82.04
2023-01-09T09:06:56.162Z,80.62
2023-01-09T09:09:25.852Z,80.79
2023-01-09T09:11:55.167Z,79.91
2023-01-09T09:14:42.967Z,77.83
2023-01-09T09:17:10.597Z,75.94
2023-01-09T09:19:39.666Z,74.96
2023-01-09T09:22:07.138Z,75.29
2023-01-09T09:24:34.850Z,75.50
2023-01-09T09:27:03.262Z,74.88
2023-01-09T09:29:30.852Z,74.83
2023-01-09T09:32:00.744Z,74.35
2023-01-09T09:34:32.513Z,72.55
2023-01-09T09:37:04.841Z,72.38
2023-01-09T09:39:38.409Z,72.10
2023-01-09T09:42:46.781Z,71.80
2023-01-09T09:45:56.848Z,72.35
2023-01-09T09:48:39.371Z,71.58
2023-01-09T09:51:39.589Z,72.14
2023-01-09T09:54:15.180Z,72.14
2023-01-09T09:56:51.471Z,72.53
2023-01-09T09:59:23.774Z,72.75
2023-01-09T10:02:00.528Z,72.47
2023-01-09T10:04:33.585Z,73.13
2023-01-09T10:07:09.642Z,73.23
2023-01-09T10:09:49.304Z,73.61
2023-01-09T10:12:32.136Z,73.65
2023-01-09T10:15:03.356Z,73.91
2023-01-09T10:17:40.754Z,73.90
2023-01-09T10:20:24.737Z,73.55
2023-01-09T10:23:12.067Z,73.32
2023-01-09T10:25:53.714Z,73.36
2023-01-09T10:28:36.622Z,72.92
2023-01-09T10:31:41.734Z,72.58
2023-01-09T10:34:28.224Z,72.25
2023-01-09T10:37:18.931Z,71.25
2023-01-09T10:39:50.367Z,69.00
2023-01-09T10:42:23.948Z,67.45
2023-01-09T10:45:05.570Z,66.60
2023-01-09T10:47:37.487Z,65.80
2023-01-09T10:50:34.000Z,64.96
2023-01-09T10:53:20.059Z,64.81
2023-01-09T10:55:54.914Z,65.13
2023-01-09T10:58:23.300Z,64.89
2023-01-09T11:00:51.724Z,65.21
2023-01-09T11:03:22.969Z,64.93
2023-01-09T11:05:55.881Z,64.65
2023-01-09T11:08:31.739Z,64.95
2023-01-09T11:11:01.443Z,64.50
2023-01-09T11:13:32.624Z,64.73
2023-01-09T11:16:05.648Z,64.71
2023-01-09T11:18:38.088Z,64.75
2023-01-09T11:21:36.256Z,63.88
2023-01-09T11:24:19.285Z,64.10
2023-01-09T11:26:51.870Z,63.53
2023-01-09T11:29:26.855Z,63.66
2023-01-09T11:32:00.018Z,63.50
2023-01-09T11:34:30.732Z,63.14
2023-01-09T11:37:10.764Z,63.74
2023-01-09T11:39:49.129Z,63.53
2023-01-09T11:42:47.223Z,63.34
2023-01-09T11:45:26.248Z,63.71
2023-01-09T11:47:53.889Z,62.36
2023-01-09T11:50:25.057Z,60.53
2023-01-09T11:53:19.497Z,59.75
2023-01-09T11:55:56.217Z,60.04
2023-01-09T11:58:24.180Z,59.51
2023-01-09T12:02:35.658Z,59.14
2023-01-09T12:05:44.703Z,58.66
2023-01-09T12:08:27.123Z,58.97
2023-01-09T12:11:25.155Z,59.53
2023-01-09T12:14:16.187Z,60.06
2023-01-09T12:17:02.210Z,59.87
2023-01-09T12:20:07.229Z,60.17
2023-01-09T12:23:11.989Z,59.53
2023-01-09T12:25:56.211Z,59.32
2023-01-09T12:28:47.480Z,59.69
2023-01-09T12:31:39.716Z,59.71
2023-01-09T12:34:23.921Z,59.76
2023-01-09T12:36:56.429Z,60.24
2023-01-09T12:39:45.482Z,60.40
2023-01-09T12:42:36.097Z,59.78
2023-01-09T12:45:44.097Z,60.34
2023-01-09T12:48:33.525Z,60.40
2023-01-09T12:51:33.340Z,60.87
2023-01-09T12:54:05.996Z,60.72
2023-01-09T12:56:39.287Z,60.42
2023-01-09T12:59:11.241Z,61.05
2023-01-09T13:01:44.923Z,61.36
2023-01-09T13:04:19.011Z,61.83
2023-01-09T13:06:56.722Z,62.75
2023-01-09T13:09:35.161Z,63.52
2023-01-09T13:12:09.001Z,65.32
2023-01-09T13:14:47.723Z,66.58
2023-01-09T13:17:49.281Z,67.47
2023-01-09T13:20:26.035Z,68.06
2023-01-09T13:44:52.936Z,80.89
2023-01-09T13:47:28.628Z,81.63
2023-01-09T13:50:09.229Z,81.41
2023-01-09T13:52:42.293Z,81.32
2023-01-09T13:55:15.641Z,81.76
2023-01-09T13:58:08.134Z,81.52
2023-01-09T14:00:36.272Z,81.35
2023-01-09T14:03:26.182Z,80.99
2023-01-09T14:05:53.701Z,80.83
2023-01-09T14:08:33.072Z,80.84
2023-01-09T14:11:03.515Z,80.48
2023-01-09T14:13:46.862Z,80.16
2023-01-09T14:16:14.527Z,79.62
2023-01-09T14:18:53.011Z,79.97
2023-01-09T14:21:22.780Z,79.47
2023-01-09T14:24:03.434Z,78.80
2023-01-09T14:26:49.415Z,77.65
2023-01-09T14:29:36.464Z,77.76
2023-01-09T14:32:22.579Z,76.25
2023-01-09T14:34:57.593Z,75.15
2023-01-09T14:37:28.228Z,75.03
2023-01-09T14:39:57.110Z,75.03
2023-01-09T14:42:29.572Z,74.79
2023-01-09T14:45:04.350Z,74.41
2023-01-09T14:47:36.337Z,74.22
2023-01-09T14:50:19.491Z,75.02
2023-01-09T14:52:55.990Z,75.66
2023-01-09T14:55:36.395Z,76.63
2023-01-09T14:58:11.598Z,78.30
2023-01-09T15:00:52.565Z,79.67
2023-01-09T15:03:21.640Z,80.75
2023-01-09T15:05:52.976Z,82.57
2023-01-09T15:14:04.358Z,85.48
2023-01-09T15:16:39.393Z,85.80
2023-01-09T15:19:16.406Z,86.75
2023-01-09T15:22:35.370Z,86.69
2023-01-09T15:25:27.478Z,87.25
2023-01-09T15:28:20.046Z,87.39
2023-01-09T15:30:57.006Z,86.78
2023-01-09T15:33:25.188Z,86.83
2023-01-09T15:36:00.133Z,85.98
2023-01-09T15:38:29.814Z,84.58
2023-01-09T15:41:35.036Z,84.41
2023-01-09T15:44:05.573Z,83.65
2023-01-09T15:46:33.361Z,82.75
2023-01-09T15:49:03.499Z,82.27
2023-01-09T15:51:34.219Z,82.24
2023-01-09T15:54:03.851Z,82.00
2023-01-09T15:56:35.587Z,81.96
2023-01-09T15:59:27.375Z,80.59
2023-01-09T16:02:20.783Z,78.62
2023-01-09T16:04:55.034Z,77.70
2023-01-09T16:07:27.853Z,76.56
2023-01-09T16:15:33.338Z,74.77
2023-01-09T16:18:19.286Z,73.97
2023-01-09T16:20:47.516Z,72.32
2023-01-09T16:23:37.439Z,71.87
2023-01-09T16:26:10.678Z,70.86
2023-01-09T16:28:41.040Z,70.25
2023-01-09T16:31:21.330Z,70.37
2023-01-09T16:34:04.521Z,69.69
2023-01-09T16:36:37.896Z,69.42
2023-01-09T16:39:05.694Z,68.58
2023-01-09T16:41:53.184Z,68.83
2023-01-09T16:44:22.221Z,68.66
2023-01-09T16:46:49.863Z,68.98
2023-01-09T16:49:25.327Z,69.74
2023-01-09T16:51:55.480Z,69.79
2023-01-09T16:54:23.999Z,70.24
2023-01-09T16:56:54.978Z,70.10
2023-01-09T16:59:27.338Z,70.32
2023-01-09T17:01:56.132Z,69.83
2023-01-09T17:04:24.224Z,69.96
2023-01-09T17:06:52.194Z,70.24
2023-01-09T17:09:23.652Z,70.34
2023-01-09T17:11:55.471Z,70.58
2023-01-09T17:14:28.793Z,70.62
2023-01-09T17:16:57.230Z,70.76
2023-01-09T17:19:24.815Z,71.12
2023-01-09T17:21:54.662Z,71.85
2023-01-09T17:29:26.785Z,73.67
2023-01-09T17:31:55.121Z,74.27
2023-01-09T17:34:23.820Z,74.14
2023-01-09T17:36:51.469Z,73.58
2023-01-09T17:39:19.238Z,73.54
2023-01-09T17:41:49.235Z,73.89
2023-01-09T17:44:18.427Z,72.87
2023-01-09T17:46:46.309Z,72.22
2023-01-09T17:49:21.579Z,71.37
2023-01-09T17:51:50.470Z,71.63
2023-01-09T17:54:20.999Z,71.97
2023-01-09T17:56:51.295Z,71.61
2023-01-09T17:59:20.158Z,71.08
2023-01-09T18:01:48.730Z,70.85
2023-01-09T18:04:18.676Z,70.92
2023-01-09T18:06:48.361Z,70.69
2023-01-09T18:09:18.441Z,71.50
2023-01-09T18:11:48.624Z,71.47
2023-01-09T18:14:17.637Z,71.96
2023-01-09T18:16:45.411Z,72.93
2023-01-09T18:19:13.230Z,73.29
2023-01-09T18:21:42.940Z,74.29
2023-01-09T18:24:10.858Z,74.49
2023-01-09T18:26:40.070Z,75.19
2023-01-09T18:29:10.314Z,76.69
2023-01-09T18:31:37.904Z,77.59
2023-01-09T18:34:07.497Z,77.83
2023-01-09T18:36:37.514Z,76.53
2023-01-09T18:39:08.784Z,76.41
2023-01-09T18:41:36.866Z,76.25
2023-01-09T18:44:05.796Z,75.67
2023-01-09T18:46:33.605Z,75.48
2023-01-09T18:49:05.083Z,75.47
2023-01-09T18:51:35.811Z,75.33
2023-01-09T18:54:04.905Z,75.84
2023-01-09T18:56:33.063Z,76.52
2023-01-09T18:59:02.684Z,76.71
2023-01-09T19:01:31.953Z,76.58
2023-01-09T19:04:00.301Z,76.59
2023-01-09T19:06:29.548Z,76.80
2023-01-09T19:08:58.907Z,76.95
2023-01-09T19:11:27.455Z,77.31
2023-01-09T19:14:49.794Z,76.85
2023-01-09T19:17:29.599Z,76.27
2023-01-09T19:20:00.890Z,76.75
2023-01-09T19:22:28.843Z,76.70
2023-01-09T19:24:56.837Z,76.42
2023-01-09T19:27:24.482Z,76.18
2023-01-09T19:29:53.048Z,76.74
2023-01-09T20:20:02.434Z,76.24
2023-01-09T20:22:30.400Z,75.91
2023-01-09T20:25:00.148Z,76.35
2023-01-09T20:27:27.711Z,76.14
2023-01-09T20:29:57.595Z,75.53
2023-01-09T20:32:25.197Z,75.35
2023-01-09T20:43:00.226Z,75.22
2023-01-09T20:45:29.127Z,73.63
2023-01-09T20:47:58.567Z,73.11
2023-01-09T20:50:34.328Z,73.34
2023-01-09T20:53:03.450Z,73.11
2023-01-09T20:55:31.035Z,73.27
2023-01-09T20:58:04.217Z,72.47
2023-01-09T21:00:34.500Z,72.46
2023-01-09T21:55:04.490Z,71.29
2023-01-09T21:57:32.156Z,71.08
2023-01-09T22:00:00.630Z,70.35
2023-01-09T22:02:28.277Z,70.64
2023-01-09T22:05:00.214Z,70.07
2023-01-09T22:07:28.006Z,69.58
2023-01-09T22:09:55.500Z,69.45
2023-01-09T22:12:23.029Z,69.16
2023-01-09T22:14:50.574Z,68.92
2023-01-09T22:17:18.115Z,69.28
2023-01-09T22:19:45.901Z,68.87
2023-01-09T22:22:13.401Z,68.95
2023-01-09T22:24:40.912Z,68.85
2023-01-09T22:27:09.505Z,68.80
2023-01-09T22:29:37.088Z,68.94
2023-01-09T22:32:04.821Z,69.26
2023-01-09T22:34:32.521Z,69.01
2023-01-09T22:37:00.160Z,69.73
2023-01-09T22:39:27.925Z,68.89
2023-01-09T22:41:55.918Z,68.75
2023-01-09T22:44:23.413Z,68.13
2023-01-09T22:46:50.956Z,67.86
2023-01-09T22:49:18.541Z,68.00
2023-01-09T22:51:46.200Z,67.65
2023-01-09T22:54:13.839Z,67.68
2023-01-09T22:56:41.480Z,68.16
2023-01-09T22:59:09.074Z,67.82
2023-01-09T23:01:36.617Z,67.94
2023-01-09T23:04:04.198Z,67.92
2023-01-09T23:06:32.241Z,67.58
2023-01-09T23:08:59.816Z,67.69
2023-01-09T23:11:48.138Z,67.89
2023-01-09T23:14:17.778Z,67.44
2023-01-09T23:16:45.431Z,67.60
2023-01-09T23:20:56.651Z,67.11
2023-01-09T23:23:28.180Z,66.90
2023-01-09T23:25:58.305Z,67.43
2023-01-09T23:28:27.716Z,67.27
2023-01-09T23:30:55.326Z,66.97
2023-01-09T23:33:22.873Z,66.51
2023-01-09T23:35:50.843Z,66.78
